createdAt,value
2022-12-14T00:01:35.471Z,0.40
2022-12-14T00:04:02.207Z,0.40
2022-12-14T00:06:31.145Z,0.40
2022-12-14T00:08:59.258Z,0.40
2022-12-14T00:11:26.121Z,0.40
2022-12-14T00:13:57.649Z,0.40
2022-12-14T00:16:25.069Z,0.40
2022-12-14T00:18:53.210Z,0.50
2022-12-14T00:21:20.151Z,0.40
2022-12-14T00:23:47.289Z,0.50
2022-12-14T00:26:18.416Z,0.40
2022-12-14T00:28:45.642Z,0.50
2022-12-14T00:31:12.795Z,0.40
2022-12-14T00:33:39.700Z,0.40
2022-12-14T00:36:07.529Z,0.40
2022-12-14T00:38:34.564Z,0.40
2022-12-14T00:41:01.317Z,0.40
2022-12-14T00:43:28.022Z,0.40
2022-12-14T00:45:55.067Z,0.40
2022-12-14T00:48:22.410Z,0.40
2022-12-14T00:50:49.524Z,0.30
2022-12-14T00:53:16.622Z,0.40
2022-12-14T00:55:44.276Z,0.40
2022-12-14T00:58:17.960Z,0.40
2022-12-14T01:00:44.709Z,0.40
2022-12-14T01:03:11.954Z,0.30
2022-12-14T01:05:39.288Z,0.30
2022-12-14T01:08:06.331Z,0.30
2022-12-14T01:10:33.117Z,0.30
2022-12-14T01:12:59.844Z,0.40
2022-12-14T01:15:26.626Z,0.30
2022-12-14T01:17:53.358Z,0.30
2022-12-14T01:20:20.066Z,0.40
2022-12-14T01:22:47.205Z,0.30
2022-12-14T01:25:13.894Z,0.30
2022-12-14T01:27:40.612Z,0.30
2022-12-14T01:30:07.769Z,0.30
2022-12-14T01:32:34.899Z,0.40
2022-12-14T01:35:01.615Z,0.30
2022-12-14T01:37:28.955Z,0.30
2022-12-14T01:39:55.893Z,0.30
2022-12-14T01:42:22.662Z,0.30
2022-12-14T01:44:54.456Z,0.50
2022-12-14T01:47:25.913Z,0.30
2022-12-14T01:50:07.258Z,0.30
2022-12-14T01:52:42.584Z,0.40
2022-12-14T01:55:13.043Z,0.40
2022-12-14T01:57:48.219Z,0.40
2022-12-14T02:00:15.255Z,0.40
2022-12-14T02:02:44.958Z,0.40
2022-12-14T02:05:12.113Z,0.30
2022-12-14T02:07:38.890Z,0.40
2022-12-14T02:10:06.244Z,0.30
2022-12-14T02:12:57.437Z,0.30
2022-12-14T02:15:24.256Z,0.20
2022-12-14T02:17:51.009Z,0.20
2022-12-14T02:20:17.885Z,0.40
2022-12-14T02:23:02.602Z,0.30
2022-12-14T02:25:49.615Z,0.30
2022-12-14T02:28:38.502Z,0.30
2022-12-14T02:31:25.043Z,0.20
2022-12-14T02:34:05.864Z,0.20
2022-12-14T02:36:42.679Z,0.20
2022-12-14T02:39:17.061Z,0.10
2022-12-14T02:42:05.352Z,0.10
2022-12-14T02:44:58.174Z,0.10
2022-12-14T02:47:28.187Z,0.10
2022-12-14T02:50:04.327Z,0.10
2022-12-14T02:52:33.871Z,0.10
2022-12-14T02:55:08.669Z,0.10
2022-12-14T02:57:45.513Z,0.10
2022-12-14T03:00:12.593Z,0.00
2022-12-14T03:02:40.759Z,0.00
2022-12-14T03:05:07.782Z,0.10
2022-12-14T03:07:42.486Z,0.00
2022-12-14T03:10:38.724Z,0.00
2022-12-14T03:13:30.411Z,0.00
2022-12-14T03:16:03.245Z,0.00
2022-12-14T03:18:35.995Z,-0.10
2022-12-14T03:21:02.834Z,-0.10
2022-12-14T03:23:32.646Z,-0.10
2022-12-14T03:26:05.435Z,0.30
2022-12-14T03:28:45.640Z,-0.10
2022-12-14T03:31:44.239Z,-0.10
2022-12-14T03:34:16.030Z,-0.20
2022-12-14T03:37:00.176Z,-0.20
2022-12-14T03:39:29.712Z,-0.30
2022-12-14T03:42:10.158Z,-0.30
2022-12-14T03:44:50.085Z,-0.30
2022-12-14T03:47:33.188Z,-0.30
2022-12-14T03:50:00.251Z,-0.30
2022-12-14T03:52:35.907Z,-0.30
2022-12-14T03:55:34.847Z,-0.40
2022-12-14T03:58:28.010Z,-0.40
2022-12-14T04:01:30.497Z,-0.50
2022-12-14T04:04:07.118Z,-0.50
2022-12-14T04:06:48.477Z,-0.60
2022-12-14T04:09:23.444Z,-0.60
2022-12-14T04:12:13.138Z,-0.50
2022-12-14T04:15:03.723Z,-0.70
2022-12-14T04:17:52.000Z,-0.70
2022-12-14T04:20:42.231Z,-0.50
2022-12-14T04:23:43.856Z,-0.70
2022-12-14T04:26:13.089Z,-0.70
2022-12-14T04:29:01.592Z,-0.80
2022-12-14T04:31:29.367Z,-0.80
2022-12-14T04:33:57.779Z,-0.80
2022-12-14T04:36:27.646Z,-0.90
2022-12-14T04:38:57.919Z,-0.80
2022-12-14T04:41:27.206Z,-0.90
2022-12-14T04:43:54.906Z,-0.80
2022-12-14T04:46:25.020Z,-0.80
2022-12-14T04:49:13.790Z,-0.80
2022-12-14T04:51:54.204Z,-0.80
2022-12-14T04:54:25.392Z,-0.30
2022-12-14T04:57:00.937Z,-0.90
2022-12-14T04:59:27.665Z,-0.90
2022-12-14T05:02:04.925Z,-0.90
2022-12-14T05:04:34.623Z,-0.90
2022-12-14T05:07:25.997Z,-0.40
2022-12-14T05:10:01.723Z,-0.90
2022-12-14T05:12:50.311Z,-1.00
2022-12-14T05:15:25.800Z,-1.00
2022-12-14T05:17:52.481Z,-1.00
2022-12-14T05:20:20.801Z,-1.10
2022-12-14T05:22:47.814Z,-1.10
2022-12-14T05:25:14.537Z,-1.10
2022-12-14T05:27:41.453Z,-1.10
2022-12-14T05:30:08.775Z,-1.10
2022-12-14T05:32:35.608Z,-1.10
2022-12-14T05:35:02.877Z,-1.10
2022-12-14T05:37:29.637Z,-1.10
2022-12-14T05:39:56.402Z,-1.10
2022-12-14T05:42:23.163Z,-1.00
2022-12-14T05:44:49.945Z,-0.60
2022-12-14T05:47:16.738Z,-1.00
2022-12-14T05:49:43.563Z,-1.00
2022-12-14T05:52:10.373Z,-1.00
2022-12-14T05:54:37.094Z,-1.00
2022-12-14T05:57:03.930Z,-1.00
2022-12-14T05:59:31.034Z,-1.00
2022-12-14T06:01:58.139Z,-1.00
2022-12-14T06:04:25.273Z,-1.00
2022-12-14T06:06:52.131Z,-1.00
2022-12-14T06:09:18.997Z,-1.10
2022-12-14T06:11:46.073Z,-1.00
2022-12-14T06:14:13.632Z,-1.10
2022-12-14T06:16:41.649Z,-1.10
2022-12-14T06:19:08.536Z,-1.10
2022-12-14T06:21:36.642Z,-1.10
2022-12-14T06:24:03.788Z,-1.10
2022-12-14T06:26:31.440Z,-1.10
2022-12-14T06:28:58.398Z,-1.10
2022-12-14T06:31:27.350Z,-1.20
2022-12-14T06:33:54.817Z,-1.20
2022-12-14T06:36:23.983Z,-1.20
2022-12-14T06:38:51.516Z,-1.20
2022-12-14T06:41:18.419Z,-1.20
2022-12-14T06:43:45.180Z,-1.20
2022-12-14T06:46:17.264Z,-1.20
2022-12-14T06:48:44.058Z,-1.20
2022-12-14T06:51:11.531Z,-1.20
2022-12-14T06:53:38.301Z,-1.30
2022-12-14T06:56:14.815Z,-1.30
2022-12-14T06:58:41.702Z,-1.30
2022-12-14T07:01:15.979Z,-1.30
2022-12-14T07:03:43.366Z,-1.30
2022-12-14T07:06:10.432Z,-1.30
2022-12-14T07:08:38.687Z,-1.30
2022-12-14T07:11:09.151Z,-1.40
2022-12-14T07:13:35.971Z,-1.40
2022-12-14T07:16:03.643Z,-1.30
2022-12-14T07:18:30.709Z,-1.30
2022-12-14T07:21:02.495Z,-1.70
2022-12-14T07:23:30.748Z,-1.40
2022-12-14T07:26:05.461Z,-1.40
2022-12-14T07:28:32.224Z,-1.40
2022-12-14T07:30:59.485Z,-1.40
2022-12-14T07:33:26.762Z,-1.40
2022-12-14T07:36:02.122Z,-0.70
2022-12-14T07:38:28.855Z,-1.30
2022-12-14T07:41:01.173Z,-1.40
2022-12-14T07:43:28.243Z,-1.40
2022-12-14T07:46:00.281Z,-1.40
2022-12-14T07:48:27.399Z,-1.40
2022-12-14T07:50:54.525Z,-1.50
2022-12-14T07:53:21.307Z,-1.40
2022-12-14T07:55:48.054Z,-1.50
2022-12-14T07:58:14.964Z,-1.40
2022-12-14T08:00:41.765Z,-1.40
2022-12-14T08:03:08.542Z,-1.50
2022-12-14T08:05:38.723Z,-1.50
2022-12-14T08:08:05.702Z,-1.40
2022-12-14T08:10:35.739Z,-1.40
2022-12-14T08:13:11.988Z,-1.50
2022-12-14T08:15:38.759Z,-1.50
2022-12-14T08:18:05.551Z,-1.40
2022-12-14T08:20:32.474Z,-1.50
2022-12-14T08:22:59.283Z,-1.40
2022-12-14T08:25:26.024Z,-1.00
2022-12-14T08:27:52.767Z,-1.50
2022-12-14T08:30:19.527Z,-1.40
2022-12-14T08:32:46.241Z,-1.40
2022-12-14T08:35:12.986Z,-1.40
2022-12-14T08:37:44.286Z,-1.40
2022-12-14T08:40:14.231Z,-1.40
2022-12-14T08:42:41.038Z,-1.40
2022-12-14T08:45:08.012Z,-1.30
2022-12-14T08:47:34.853Z,-1.30
2022-12-14T08:50:01.576Z,-1.30
2022-12-14T08:52:28.826Z,-1.20
2022-12-14T08:54:55.572Z,-0.90
2022-12-14T08:57:22.314Z,-1.20
2022-12-14T09:00:01.376Z,-1.20
2022-12-14T09:02:28.777Z,-1.20
2022-12-14T09:04:55.610Z,-1.10
2022-12-14T09:07:22.543Z,-1.10
2022-12-14T09:09:49.256Z,-1.00
2022-12-14T09:12:16.031Z,-1.00
2022-12-14T09:14:46.546Z,-0.90
2022-12-14T09:17:16.936Z,-0.90
2022-12-14T09:19:43.787Z,-0.80
2022-12-14T09:22:10.799Z,-0.90
2022-12-14T09:24:37.597Z,-0.80
2022-12-14T09:27:04.488Z,-0.80
2022-12-14T09:29:31.267Z,-0.80
2022-12-14T09:31:58.041Z,-0.70
2022-12-14T09:34:25.432Z,-0.70
2022-12-14T09:36:53.164Z,-0.70
2022-12-14T09:39:20.027Z,-0.70
2022-12-14T09:41:46.868Z,-0.60
2022-12-14T09:44:26.925Z,-0.70
2022-12-14T09:47:02.313Z,-0.60
2022-12-14T09:49:45.017Z,-0.60
2022-12-14T09:52:44.501Z,-0.50
2022-12-14T09:55:32.750Z,-0.40
2022-12-14T09:58:20.227Z,-0.40
2022-12-14T10:00:53.581Z,-0.50
2022-12-14T10:03:41.368Z,-0.40
2022-12-14T10:06:25.375Z,-0.40
2022-12-14T10:09:03.029Z,-0.10
2022-12-14T10:11:41.769Z,-0.20
2022-12-14T10:14:13.335Z,-0.20
2022-12-14T10:16:52.694Z,-0.20
2022-12-14T10:19:39.256Z,-0.10
2022-12-14T10:22:17.611Z,-0.10
2022-12-14T10:25:05.747Z,0.00
2022-12-14T10:27:53.907Z,0.00
2022-12-14T10:30:21.288Z,0.00
2022-12-14T10:32:52.382Z,0.20
2022-12-14T10:35:52.541Z,0.00
2022-12-14T10:38:26.671Z,0.10
2022-12-14T10:40:56.394Z,0.10
2022-12-14T10:43:34.848Z,0.20
2022-12-14T10:46:26.008Z,0.20
2022-12-14T10:49:11.400Z,0.30
2022-12-14T10:51:41.789Z,0.30
2022-12-14T10:54:21.410Z,0.40
2022-12-14T10:56:50.253Z,0.40
2022-12-14T10:59:26.321Z,0.40
2022-12-14T11:02:04.587Z,1.20
2022-12-14T11:04:33.004Z,0.40
2022-12-14T11:07:10.457Z,0.50
2022-12-14T11:09:37.690Z,0.50
2022-12-14T11:12:08.167Z,0.50
2022-12-14T11:14:36.357Z,0.50
2022-12-14T11:17:03.375Z,0.50
2022-12-14T11:19:30.311Z,0.60
2022-12-14T11:22:15.849Z,0.60
2022-12-14T11:24:48.814Z,0.50
2022-12-14T11:27:18.758Z,0.50
2022-12-14T11:29:47.302Z,0.60
2022-12-14T11:32:23.191Z,0.60
2022-12-14T11:34:57.520Z,0.60
2022-12-14T11:37:30.174Z,0.70
2022-12-14T11:40:01.105Z,0.60
2022-12-14T11:42:27.947Z,0.60
2022-12-14T11:44:55.035Z,0.60
2022-12-14T11:47:26.566Z,0.60
2022-12-14T11:49:54.518Z,0.60
2022-12-14T11:52:41.712Z,0.60
2022-12-14T11:55:23.039Z,0.60
2022-12-14T11:57:55.252Z,0.60
2022-12-14T12:00:24.228Z,0.60
2022-12-14T12:03:02.161Z,0.60
2022-12-14T12:05:31.451Z,0.60
2022-12-14T12:07:58.909Z,0.70
2022-12-14T12:10:41.098Z,0.70
2022-12-14T12:13:16.895Z,0.70
2022-12-14T12:15:50.098Z,0.70
2022-12-14T12:18:18.490Z,0.70
2022-12-14T12:21:21.885Z,0.80
2022-12-14T12:23:57.215Z,0.80
2022-12-14T12:26:34.925Z,0.80
2022-12-14T12:29:03.447Z,0.90
2022-12-14T12:31:33.998Z,0.90
2022-12-14T12:34:10.157Z,0.90
2022-12-14T12:36:36.937Z,0.90
2022-12-14T12:39:17.371Z,0.90
2022-12-14T12:42:05.418Z,0.90
2022-12-14T12:44:43.215Z,0.80
2022-12-14T12:47:47.152Z,0.90
2022-12-14T12:50:16.941Z,0.90
2022-12-14T12:53:02.640Z,0.90
2022-12-14T12:55:30.908Z,0.90
2022-12-14T12:57:57.980Z,0.90
2022-12-14T13:00:25.921Z,0.90
2022-12-14T13:02:55.748Z,0.90
2022-12-14T13:08:14.545Z,0.90
2022-12-14T13:11:02.328Z,1.00
2022-12-14T13:13:32.429Z,1.00
2022-12-14T13:16:27.216Z,1.00
2022-12-14T13:19:04.828Z,1.00
2022-12-14T13:21:47.919Z,1.00
2022-12-14T13:24:19.193Z,1.00
2022-12-14T13:26:59.086Z,1.00
2022-12-14T13:30:04.586Z,1.00
2022-12-14T13:32:41.143Z,1.00
2022-12-14T13:35:16.812Z,1.00
2022-12-14T13:37:54.941Z,0.90
2022-12-14T13:40:36.904Z,0.80
2022-12-14T13:43:09.821Z,0.80
2022-12-14T13:45:41.322Z,0.90
2022-12-14T13:48:29.125Z,0.80
2022-12-14T13:51:02.257Z,0.80
2022-12-14T13:53:37.551Z,0.80
2022-12-14T13:56:04.466Z,0.80
2022-12-14T13:58:41.233Z,0.80
2022-12-14T14:01:31.139Z,0.80
2022-12-14T14:04:15.963Z,0.70
2022-12-14T14:06:46.861Z,0.70
2022-12-14T14:09:34.615Z,0.80
2022-12-14T14:12:01.390Z,0.70
2022-12-14T14:14:50.805Z,0.70
2022-12-14T14:17:25.355Z,0.70
2022-12-14T14:19:56.103Z,0.60
2022-12-14T14:22:27.725Z,0.60
2022-12-14T14:25:01.305Z,0.50
2022-12-14T14:27:50.224Z,0.50
2022-12-14T14:30:51.419Z,0.50
2022-12-14T14:33:47.385Z,0.40
2022-12-14T14:36:33.410Z,0.40
2022-12-14T14:39:38.353Z,0.40
2022-12-14T14:41:55.693Z,0.30
2022-12-14T14:44:26.740Z,0.30
2022-12-14T14:46:53.504Z,0.30
2022-12-14T14:49:37.642Z,0.20
2022-12-14T14:52:41.269Z,0.20
2022-12-14T14:55:52.738Z,0.20
2022-12-14T14:58:25.689Z,0.10
2022-12-14T15:01:12.070Z,0.10
2022-12-14T15:03:39.236Z,0.00
2022-12-14T15:06:13.657Z,-0.10
2022-12-14T15:08:42.896Z,-0.10
2022-12-14T15:11:20.166Z,-0.20
2022-12-14T15:14:14.085Z,-0.20
2022-12-14T15:16:42.434Z,-0.20
2022-12-14T15:19:23.225Z,-0.20
2022-12-14T15:21:52.013Z,-0.20
2022-12-14T15:24:18.735Z,-0.20
2022-12-14T15:26:45.614Z,-0.20
2022-12-14T15:29:17.937Z,-0.20
2022-12-14T15:31:44.810Z,-0.20
2022-12-14T15:34:18.513Z,-0.20
2022-12-14T15:36:45.239Z,-0.10
2022-12-14T15:39:40.414Z,0.00
2022-12-14T15:42:17.271Z,-0.10
2022-12-14T15:44:55.313Z,-0.20
2022-12-14T15:47:30.478Z,-0.20
2022-12-14T15:50:36.007Z,-0.10
2022-12-14T15:53:12.451Z,-0.10
2022-12-14T15:55:45.841Z,0.00
2022-12-14T15:58:16.613Z,0.00
2022-12-14T16:00:46.806Z,0.00
2022-12-14T16:03:28.336Z,-0.10
2022-12-14T16:05:55.366Z,-0.10
2022-12-14T16:08:22.572Z,-0.10
2022-12-14T16:10:50.661Z,0.00
2022-12-14T16:13:33.226Z,0.00
2022-12-14T16:16:04.555Z,-0.30
2022-12-14T16:18:31.887Z,-0.10
2022-12-14T16:21:00.784Z,-0.10
2022-12-14T16:23:39.214Z,0.10
2022-12-14T16:26:16.259Z,0.00
2022-12-14T16:28:43.105Z,0.00
2022-12-14T16:31:18.890Z,0.00
2022-12-14T16:33:45.802Z,0.10
2022-12-14T16:36:24.388Z,0.10
2022-12-14T16:39:02.149Z,0.10
2022-12-14T16:41:37.000Z,0.00
2022-12-14T16:44:21.224Z,0.10
2022-12-14T16:47:03.179Z,0.10
2022-12-14T16:49:31.183Z,0.10
2022-12-14T16:52:14.766Z,0.20
2022-12-14T16:54:41.624Z,0.20
2022-12-14T16:57:21.593Z,0.20
2022-12-14T16:59:55.920Z,0.20
2022-12-14T17:02:33.597Z,0.30
2022-12-14T17:05:03.973Z,0.30
2022-12-14T17:07:31.583Z,0.40
2022-12-14T17:09:58.959Z,0.40
2022-12-14T17:12:26.411Z,0.40
2022-12-14T17:14:53.878Z,0.40
2022-12-14T17:17:33.383Z,0.40
2022-12-14T17:20:00.213Z,0.50
2022-12-14T17:22:30.571Z,0.40
2022-12-14T17:24:59.282Z,0.50
2022-12-14T17:27:26.888Z,0.80
2022-12-14T17:29:54.263Z,0.70
2022-12-14T17:32:21.048Z,0.60
2022-12-14T17:34:47.932Z,0.60
2022-12-14T17:37:22.054Z,0.70
2022-12-14T17:39:48.708Z,0.70
2022-12-14T17:42:17.118Z,0.70
2022-12-14T17:44:47.293Z,0.70
2022-12-14T17:47:14.090Z,0.70
2022-12-14T17:49:42.335Z,0.70
2022-12-14T17:52:20.050Z,0.70
2022-12-14T17:54:47.210Z,0.80
2022-12-14T17:57:18.708Z,0.70
2022-12-14T17:59:47.597Z,0.80
2022-12-14T18:02:24.524Z,0.80
2022-12-14T18:04:52.041Z,0.80
2022-12-14T18:07:18.812Z,0.80
2022-12-14T18:09:45.584Z,0.80
2022-12-14T18:12:23.207Z,0.80
2022-12-14T18:14:50.500Z,0.90
2022-12-14T18:17:18.845Z,0.90
2022-12-14T18:19:47.909Z,0.90
2022-12-14T18:22:16.399Z,1.00
2022-12-14T18:24:43.119Z,0.90
2022-12-14T18:27:09.894Z,0.90
2022-12-14T18:29:38.949Z,0.90
2022-12-14T18:32:05.791Z,0.90
2022-12-14T18:34:32.633Z,1.00
2022-12-14T18:36:59.427Z,0.90
2022-12-14T18:39:26.167Z,0.90
2022-12-14T18:41:52.955Z,0.90
2022-12-14T18:44:19.702Z,1.00
2022-12-14T18:46:49.411Z,1.00
2022-12-14T18:49:16.523Z,1.00
2022-12-14T18:51:44.581Z,1.00
2022-12-14T18:54:11.664Z,1.00
2022-12-14T18:56:40.578Z,1.00
2022-12-14T18:59:10.096Z,1.00
2022-12-14T19:01:39.021Z,1.00
2022-12-14T19:04:07.389Z,1.00
2022-12-14T19:06:44.304Z,1.10
2022-12-14T19:09:12.803Z,1.10
2022-12-14T19:11:41.878Z,1.10
2022-12-14T19:14:08.921Z,1.10
2022-12-14T19:16:43.084Z,1.10
2022-12-14T19:19:09.781Z,1.20
2022-12-14T19:21:36.775Z,1.10
2022-12-14T19:24:04.127Z,1.10
2022-12-14T19:26:33.679Z,1.10
2022-12-14T19:29:00.422Z,1.00
2022-12-14T19:31:27.257Z,1.10
2022-12-14T19:33:54.105Z,1.10
2022-12-14T19:36:20.816Z,1.20
2022-12-14T19:38:49.322Z,1.10
2022-12-14T19:41:17.842Z,1.10
2022-12-14T19:43:44.770Z,1.10
2022-12-14T19:46:12.387Z,1.10
2022-12-14T19:48:39.354Z,1.00
2022-12-14T19:51:10.832Z,1.00
2022-12-14T19:53:38.499Z,0.90
2022-12-14T19:56:05.634Z,0.90
2022-12-14T19:58:32.460Z,0.80
2022-12-14T20:00:59.211Z,0.80
2022-12-14T20:03:26.149Z,0.70
2022-12-14T20:05:58.572Z,0.70
2022-12-14T20:08:26.096Z,0.60
2022-12-14T20:10:53.102Z,0.60
2022-12-14T20:13:23.605Z,0.60
2022-12-14T20:15:54.853Z,0.50
2022-12-14T20:18:22.581Z,0.50
2022-12-14T20:20:50.275Z,0.50
2022-12-14T20:23:18.556Z,0.40
2022-12-14T20:25:45.377Z,0.40
2022-12-14T20:28:12.162Z,0.30
2022-12-14T20:30:43.965Z,0.30
2022-12-14T20:33:10.787Z,0.20
2022-12-14T20:35:37.553Z,0.20
2022-12-14T20:38:04.291Z,0.20
2022-12-14T20:40:38.099Z,0.10
2022-12-14T20:43:05.594Z,0.10
2022-12-14T20:45:32.445Z,0.10
2022-12-14T20:47:59.331Z,0.10
2022-12-14T20:50:26.111Z,0.10
2022-12-14T20:52:52.818Z,0.10
2022-12-14T20:55:19.561Z,0.10
2022-12-14T20:57:46.299Z,0.00
2022-12-14T21:00:16.413Z,0.00
2022-12-14T21:02:43.322Z,0.00
2022-12-14T21:05:10.199Z,0.00
2022-12-14T21:07:38.528Z,-0.10
2022-12-14T21:10:08.913Z,-0.20
2022-12-14T21:12:35.879Z,-0.20
2022-12-14T21:15:02.806Z,-0.20
2022-12-14T21:17:30.068Z,-0.20
2022-12-14T21:19:57.694Z,-0.30
2022-12-14T21:22:26.273Z,-0.30
2022-12-14T21:25:08.270Z,-0.30
2022-12-14T21:27:38.339Z,-0.20
2022-12-14T21:30:09.498Z,-0.40
2022-12-14T21:32:37.158Z,-0.40
2022-12-14T21:35:04.260Z,-0.40
2022-12-14T21:37:31.028Z,-0.40
2022-12-14T21:39:57.841Z,-0.40
2022-12-14T21:42:24.700Z,-0.50
2022-12-14T21:44:51.844Z,-0.50
2022-12-14T21:47:26.492Z,-0.10
2022-12-14T21:49:53.348Z,-0.50
2022-12-14T21:52:22.106Z,-0.50
2022-12-14T21:54:48.926Z,-0.50
2022-12-14T21:57:35.069Z,-0.60
2022-12-14T22:00:02.140Z,-0.60
2022-12-14T22:02:29.226Z,-0.60
2022-12-14T22:04:56.369Z,-0.70
2022-12-14T22:07:30.428Z,-0.70
2022-12-14T22:09:57.437Z,-0.70
2022-12-14T22:12:24.846Z,-0.70
2022-12-14T22:14:51.619Z,-0.80
2022-12-14T22:17:18.363Z,-0.80
2022-12-14T22:19:45.319Z,-0.80
2022-12-14T22:22:15.944Z,-0.80
2022-12-14T22:24:43.104Z,-0.80
2022-12-14T22:27:12.832Z,-0.80
2022-12-14T22:29:39.674Z,-0.80
2022-12-14T22:32:07.276Z,-0.80
2022-12-14T22:34:34.559Z,-0.90
2022-12-14T22:37:01.795Z,-0.90
2022-12-14T22:39:28.684Z,-0.80
2022-12-14T22:41:55.513Z,-0.90
2022-12-14T22:44:22.440Z,-0.90
2022-12-14T22:46:50.062Z,-0.90
2022-12-14T22:49:20.644Z,-0.90
2022-12-14T22:51:47.479Z,-1.00
2022-12-14T22:54:19.212Z,-1.10
2022-12-14T22:56:48.037Z,-1.10
2022-12-14T22:59:16.225Z,-1.10
2022-12-14T23:01:43.124Z,-1.10
2022-12-14T23:04:16.598Z,-1.10
2022-12-14T23:06:43.494Z,-1.10
2022-12-14T23:09:29.243Z,-1.20
2022-12-14T23:12:19.686Z,-1.00
2022-12-14T23:15:06.849Z,-1.20
2022-12-14T23:17:52.375Z,-1.30
2022-12-14T23:20:37.957Z,-1.30
2022-12-14T23:23:26.574Z,-1.40
2022-12-14T23:26:12.041Z,-1.30
2022-12-14T23:28:57.638Z,-1.00
2022-12-14T23:31:42.773Z,-1.50
2022-12-14T23:34:28.413Z,-1.40
2022-12-14T23:37:19.761Z,-1.60
2022-12-14T23:40:05.584Z,-1.60
2022-12-14T23:42:51.237Z,-1.70
2022-12-14T23:45:36.494Z,-1.70
2022-12-14T23:48:21.766Z,-1.80
2022-12-14T23:51:06.981Z,-1.80
2022-12-14T23:53:52.397Z,-1.80
2022-12-14T23:56:37.864Z,-1.80
2022-12-14T23:59:27.924Z,-1.80
